sensor_id;sensor_type;location;lat;lon;timestamp;temperature;humidity
18177;DHT22;9213;50.858;3.964;2023-10-08T00:01:08;19.80;43.60
18177;DHT22;9213;50.858;3.964;2023-10-08T00:03:37;19.80;43.70
18177;DHT22;9213;50.858;3.964;2023-10-08T00:06:05;19.80;43.80
18177;DHT22;9213;50.858;3.964;2023-10-08T00:08:38;19.70;44.00
18177;DHT22;9213;50.858;3.964;2023-10-08T00:11:05;19.70;44.20
18177;DHT22;9213;50.858;3.964;2023-10-08T00:13:34;19.70;44.30
18177;DHT22;9213;50.858;3.964;2023-10-08T00:16:05;19.60;44.30
18177;DHT22;9213;50.858;3.964;2023-10-08T00:18:35;19.50;44.40
18177;DHT22;9213;50.858;3.964;2023-10-08T00:21:02;19.50;44.50
18177;DHT22;9213;50.858;3.964;2023-10-08T00:23:42;19.50;44.50
18177;DHT22;9213;50.858;3.964;2023-10-08T00:26:14;19.50;44.80
18177;DHT22;9213;50.858;3.964;2023-10-08T00:28:45;19.40;44.50
18177;DHT22;9213;50.858;3.964;2023-10-08T00:31:14;19.40;44.80
18177;DHT22;9213;50.858;3.964;2023-10-08T00:33:43;19.40;45.00
18177;DHT22;9213;50.858;3.964;2023-10-08T00:36:10;19.30;44.90
18177;DHT22;9213;50.858;3.964;2023-10-08T00:38:44;19.30;44.90
18177;DHT22;9213;50.858;3.964;2023-10-08T00:41:13;19.30;45.00
18177;DHT22;9213;50.858;3.964;2023-10-08T00:43:41;19.30;45.20
18177;DHT22;9213;50.858;3.964;2023-10-08T00:46:12;19.30;45.30
18177;DHT22;9213;50.858;3.964;2023-10-08T00:48:49;19.20;45.40
18177;DHT22;9213;50.858;3.964;2023-10-08T00:51:18;19.20;45.70
18177;DHT22;9213;50.858;3.964;2023-10-08T00:53:54;19.10;45.70
18177;DHT22;9213;50.858;3.964;2023-10-08T00:56:27;19.10;45.70
18177;DHT22;9213;50.858;3.964;2023-10-08T00:59:10;19.10;45.90
18177;DHT22;9213;50.858;3.964;2023-10-08T01:01:42;19.10;45.80
18177;DHT22;9213;50.858;3.964;2023-10-08T01:04:17;19.10;46.20
18177;DHT22;9213;50.858;3.964;2023-10-08T01:06:48;19.00;46.00
18177;DHT22;9213;50.858;3.964;2023-10-08T01:09:19;19.00;46.10
18177;DHT22;9213;50.858;3.964;2023-10-08T01:12:07;18.90;46.30
18177;DHT22;9213;50.858;3.964;2023-10-08T01:14:34;19.00;46.40
18177;DHT22;9213;50.858;3.964;2023-10-08T01:17:03;18.90;46.50
18177;DHT22;9213;50.858;3.964;2023-10-08T01:19:32;18.90;46.70
18177;DHT22;9213;50.858;3.964;2023-10-08T01:22:06;18.80;46.60
18177;DHT22;9213;50.858;3.964;2023-10-08T01:24:42;18.80;46.70
18177;DHT22;9213;50.858;3.964;2023-10-08T01:27:10;18.80;46.90
18177;DHT22;9213;50.858;3.964;2023-10-08T01:29:38;18.70;47.00
18177;DHT22;9213;50.858;3.964;2023-10-08T01:32:05;18.70;47.20
18177;DHT22;9213;50.858;3.964;2023-10-08T01:34:36;18.70;47.30
18177;DHT22;9213;50.858;3.964;2023-10-08T01:37:06;18.70;47.50
18177;DHT22;9213;50.858;3.964;2023-10-08T01:39:38;18.70;47.50
18177;DHT22;9213;50.858;3.964;2023-10-08T01:42:07;18.60;47.50
18177;DHT22;9213;50.858;3.964;2023-10-08T01:44:41;18.60;47.60
18177;DHT22;9213;50.858;3.964;2023-10-08T01:47:10;18.60;47.60
18177;DHT22;9213;50.858;3.964;2023-10-08T01:49:38;18.50;47.70
18177;DHT22;9213;50.858;3.964;2023-10-08T01:52:07;18.50;47.80
18177;DHT22;9213;50.858;3.964;2023-10-08T01:54:39;18.50;48.00
18177;DHT22;9213;50.858;3.964;2023-10-08T01:57:06;18.50;48.10
18177;DHT22;9213;50.858;3.964;2023-10-08T01:59:35;18.40;48.10
18177;DHT22;9213;50.858;3.964;2023-10-08T02:02:03;18.40;48.20
18177;DHT22;9213;50.858;3.964;2023-10-08T02:04:31;18.40;48.30
18177;DHT22;9213;50.858;3.964;2023-10-08T02:07:01;18.40;48.30
18177;DHT22;9213;50.858;3.964;2023-10-08T02:09:30;18.40;48.40
18177;DHT22;9213;50.858;3.964;2023-10-08T02:11:58;18.40;48.60
18177;DHT22;9213;50.858;3.964;2023-10-08T02:14:25;18.30;48.60
18177;DHT22;9213;50.858;3.964;2023-10-08T02:16:56;18.30;49.50
18177;DHT22;9213;50.858;3.964;2023-10-08T02:19:23;18.30;48.80
18177;DHT22;9213;50.858;3.964;2023-10-08T02:21:53;18.30;48.90
18177;DHT22;9213;50.858;3.964;2023-10-08T02:24:21;18.20;48.90
18177;DHT22;9213;50.858;3.964;2023-10-08T02:26:51;18.20;49.10
18177;DHT22;9213;50.858;3.964;2023-10-08T02:29:18;18.20;49.10
18177;DHT22;9213;50.858;3.964;2023-10-08T02:31:45;18.20;49.30
18177;DHT22;9213;50.858;3.964;2023-10-08T02:34:13;18.20;49.40
18177;DHT22;9213;50.858;3.964;2023-10-08T02:36:40;18.20;49.50
18177;DHT22;9213;50.858;3.964;2023-10-08T02:39:08;18.10;49.50
18177;DHT22;9213;50.858;3.964;2023-10-08T02:41:42;18.10;50.40
18177;DHT22;9213;50.858;3.964;2023-10-08T02:44:13;18.10;49.80
18177;DHT22;9213;50.858;3.964;2023-10-08T02:46:41;18.10;49.90
18177;DHT22;9213;50.858;3.964;2023-10-08T02:49:10;18.00;49.80
18177;DHT22;9213;50.858;3.964;2023-10-08T02:51:45;18.10;50.00
18177;DHT22;9213;50.858;3.964;2023-10-08T02:54:12;18.00;49.90
18177;DHT22;9213;50.858;3.964;2023-10-08T02:56:44;18.00;50.00
18177;DHT22;9213;50.858;3.964;2023-10-08T02:59:13;18.10;50.20
18177;DHT22;9213;50.858;3.964;2023-10-08T03:01:41;18.00;50.10
18177;DHT22;9213;50.858;3.964;2023-10-08T03:04:08;18.00;50.20
18177;DHT22;9213;50.858;3.964;2023-10-08T03:06:43;18.00;50.30
18177;DHT22;9213;50.858;3.964;2023-10-08T03:09:11;18.00;50.30
18177;DHT22;9213;50.858;3.964;2023-10-08T03:11:39;18.00;50.30
18177;DHT22;9213;50.858;3.964;2023-10-08T03:14:14;18.00;50.40
18177;DHT22;9213;50.858;3.964;2023-10-08T03:16:48;18.00;50.50
18177;DHT22;9213;50.858;3.964;2023-10-08T03:19:15;18.00;50.60
18177;DHT22;9213;50.858;3.964;2023-10-08T03:21:44;18.00;50.60
18177;DHT22;9213;50.858;3.964;2023-10-08T03:24:17;18.10;50.70
18177;DHT22;9213;50.858;3.964;2023-10-08T03:27:03;18.10;50.80
18177;DHT22;9213;50.858;3.964;2023-10-08T03:29:39;18.00;50.70
18177;DHT22;9213;50.858;3.964;2023-10-08T03:32:08;18.00;50.80
18177;DHT22;9213;50.858;3.964;2023-10-08T03:34:39;18.00;50.90
18177;DHT22;9213;50.858;3.964;2023-10-08T03:37:09;18.00;50.90
18177;DHT22;9213;50.858;3.964;2023-10-08T03:39:41;18.00;51.10
18177;DHT22;9213;50.858;3.964;2023-10-08T03:42:32;18.00;51.10
18177;DHT22;9213;50.858;3.964;2023-10-08T03:45:08;18.00;51.00
18177;DHT22;9213;50.858;3.964;2023-10-08T03:47:38;18.00;51.20
18177;DHT22;9213;50.858;3.964;2023-10-08T03:50:06;17.90;51.20
18177;DHT22;9213;50.858;3.964;2023-10-08T03:52:35;17.90;51.30
18177;DHT22;9213;50.858;3.964;2023-10-08T03:55:05;17.90;51.30
18177;DHT22;9213;50.858;3.964;2023-10-08T03:57:39;17.80;51.40
18177;DHT22;9213;50.858;3.964;2023-10-08T04:00:12;17.90;51.50
18177;DHT22;9213;50.858;3.964;2023-10-08T04:02:44;17.80;51.60
18177;DHT22;9213;50.858;3.964;2023-10-08T04:05:20;17.80;51.60
18177;DHT22;9213;50.858;3.964;2023-10-08T04:07:49;17.80;51.70
18177;DHT22;9213;50.858;3.964;2023-10-08T04:10:35;17.70;51.80
18177;DHT22;9213;50.858;3.964;2023-10-08T04:13:26;17.70;51.90
18177;DHT22;9213;50.858;3.964;2023-10-08T04:15:55;17.70;51.90
18177;DHT22;9213;50.858;3.964;2023-10-08T04:18:22;17.70;52.10
18177;DHT22;9213;50.858;3.964;2023-10-08T04:20:49;17.70;52.10
18177;DHT22;9213;50.858;3.964;2023-10-08T04:23:26;17.60;52.10
18177;DHT22;9213;50.858;3.964;2023-10-08T04:25:54;17.60;52.20
18177;DHT22;9213;50.858;3.964;2023-10-08T04:28:22;17.60;52.30
18177;DHT22;9213;50.858;3.964;2023-10-08T04:30:55;17.60;52.30
18177;DHT22;9213;50.858;3.964;2023-10-08T04:33:41;17.60;52.50
18177;DHT22;9213;50.858;3.964;2023-10-08T04:36:08;17.60;52.40
18177;DHT22;9213;50.858;3.964;2023-10-08T04:38:35;17.60;52.30
18177;DHT22;9213;50.858;3.964;2023-10-08T04:41:06;17.50;52.60
18177;DHT22;9213;50.858;3.964;2023-10-08T04:43:35;17.50;52.80
18177;DHT22;9213;50.858;3.964;2023-10-08T04:46:05;17.50;52.90
18177;DHT22;9213;50.858;3.964;2023-10-08T04:48:45;17.60;52.90
18177;DHT22;9213;50.858;3.964;2023-10-08T04:51:12;17.50;52.80
18177;DHT22;9213;50.858;3.964;2023-10-08T04:53:39;17.50;52.90
18177;DHT22;9213;50.858;3.964;2023-10-08T04:56:11;17.50;53.00
18177;DHT22;9213;50.858;3.964;2023-10-08T04:58:43;17.50;53.00
18177;DHT22;9213;50.858;3.964;2023-10-08T05:01:14;17.50;52.90
18177;DHT22;9213;50.858;3.964;2023-10-08T05:03:44;17.50;53.10
18177;DHT22;9213;50.858;3.964;2023-10-08T05:06:34;17.50;53.20
18177;DHT22;9213;50.858;3.964;2023-10-08T05:09:26;17.50;53.30
18177;DHT22;9213;50.858;3.964;2023-10-08T05:12:05;17.50;53.30
18177;DHT22;9213;50.858;3.964;2023-10-08T05:14:37;17.50;53.30
18177;DHT22;9213;50.858;3.964;2023-10-08T05:17:22;17.50;53.40
18177;DHT22;9213;50.858;3.964;2023-10-08T05:19:49;17.50;53.40
18177;DHT22;9213;50.858;3.964;2023-10-08T05:22:42;17.50;53.40
18177;DHT22;9213;50.858;3.964;2023-10-08T05:25:09;17.40;53.20
18177;DHT22;9213;50.858;3.964;2023-10-08T05:27:53;17.40;53.30
18177;DHT22;9213;50.858;3.964;2023-10-08T05:30:35;17.40;53.40
18177;DHT22;9213;50.858;3.964;2023-10-08T05:33:09;17.40;53.40
18177;DHT22;9213;50.858;3.964;2023-10-08T05:35:51;17.40;53.70
18177;DHT22;9213;50.858;3.964;2023-10-08T05:38:28;17.30;53.80
18177;DHT22;9213;50.858;3.964;2023-10-08T05:41:12;17.30;54.00
18177;DHT22;9213;50.858;3.964;2023-10-08T05:43:53;17.30;54.00
18177;DHT22;9213;50.858;3.964;2023-10-08T05:46:37;17.30;54.00
18177;DHT22;9213;50.858;3.964;2023-10-08T05:49:16;17.30;54.00
18177;DHT22;9213;50.858;3.964;2023-10-08T05:52:00;17.30;54.20
18177;DHT22;9213;50.858;3.964;2023-10-08T05:54:47;17.30;54.20
18177;DHT22;9213;50.858;3.964;2023-10-08T05:57:40;17.30;54.20
18177;DHT22;9213;50.858;3.964;2023-10-08T06:00:12;17.40;54.20
18177;DHT22;9213;50.858;3.964;2023-10-08T06:02:57;17.30;54.50
18177;DHT22;9213;50.858;3.964;2023-10-08T06:05:37;17.40;54.40
18177;DHT22;9213;50.858;3.964;2023-10-08T06:08:13;17.40;54.50
18177;DHT22;9213;50.858;3.964;2023-10-08T06:10:40;17.50;54.60
18177;DHT22;9213;50.858;3.964;2023-10-08T06:13:22;17.50;54.60
18177;DHT22;9213;50.858;3.964;2023-10-08T06:15:57;17.60;54.50
18177;DHT22;9213;50.858;3.964;2023-10-08T06:18:34;17.60;54.60
18177;DHT22;9213;50.858;3.964;2023-10-08T06:21:03;17.70;54.60
18177;DHT22;9213;50.858;3.964;2023-10-08T06:23:34;17.80;54.60
18177;DHT22;9213;50.858;3.964;2023-10-08T06:26:03;17.80;54.40
18177;DHT22;9213;50.858;3.964;2023-10-08T06:28:41;17.90;54.50
18177;DHT22;9213;50.858;3.964;2023-10-08T06:31:08;17.90;54.30
18177;DHT22;9213;50.858;3.964;2023-10-08T06:33:42;18.00;54.10
18177;DHT22;9213;50.858;3.964;2023-10-08T06:36:11;18.10;54.10
18177;DHT22;9213;50.858;3.964;2023-10-08T06:38:43;18.20;54.00
18177;DHT22;9213;50.858;3.964;2023-10-08T06:41:10;18.20;53.80
18177;DHT22;9213;50.858;3.964;2023-10-08T06:43:41;18.30;53.70
18177;DHT22;9213;50.858;3.964;2023-10-08T06:46:12;18.40;53.60
18177;DHT22;9213;50.858;3.964;2023-10-08T06:48:40;18.50;53.50
18177;DHT22;9213;50.858;3.964;2023-10-08T06:51:08;18.50;53.50
18177;DHT22;9213;50.858;3.964;2023-10-08T06:53:40;18.60;53.30
18177;DHT22;9213;50.858;3.964;2023-10-08T06:56:07;18.70;53.30
18177;DHT22;9213;50.858;3.964;2023-10-08T06:58:36;18.70;53.30
18177;DHT22;9213;50.858;3.964;2023-10-08T07:01:04;18.80;53.20
18177;DHT22;9213;50.858;3.964;2023-10-08T07:03:34;18.90;53.10
18177;DHT22;9213;50.858;3.964;2023-10-08T07:06:03;18.90;52.90
18177;DHT22;9213;50.858;3.964;2023-10-08T07:08:44;19.10;52.70
18177;DHT22;9213;50.858;3.964;2023-10-08T07:11:18;19.20;52.20
18177;DHT22;9213;50.858;3.964;2023-10-08T07:13:45;19.30;52.00
18177;DHT22;9213;50.858;3.964;2023-10-08T07:16:12;19.50;51.90
18177;DHT22;9213;50.858;3.964;2023-10-08T07:18:43;19.60;52.30
18177;DHT22;9213;50.858;3.964;2023-10-08T07:21:17;19.80;51.20
18177;DHT22;9213;50.858;3.964;2023-10-08T07:23:45;20.10;50.70
18177;DHT22;9213;50.858;3.964;2023-10-08T07:26:29;20.40;50.10
18177;DHT22;9213;50.858;3.964;2023-10-08T07:29:02;20.80;49.20
18177;DHT22;9213;50.858;3.964;2023-10-08T07:31:34;21.00;48.40
18177;DHT22;9213;50.858;3.964;2023-10-08T07:34:02;21.30;47.80
18177;DHT22;9213;50.858;3.964;2023-10-08T07:36:42;21.50;46.90
18177;DHT22;9213;50.858;3.964;2023-10-08T07:39:11;21.70;46.70
18177;DHT22;9213;50.858;3.964;2023-10-08T07:41:52;21.80;46.00
18177;DHT22;9213;50.858;3.964;2023-10-08T07:44:20;22.10;45.70
18177;DHT22;9213;50.858;3.964;2023-10-08T07:46:48;22.20;45.20
18177;DHT22;9213;50.858;3.964;2023-10-08T07:49:16;22.10;44.80
18177;DHT22;9213;50.858;3.964;2023-10-08T07:51:43;22.10;44.90
18177;DHT22;9213;50.858;3.964;2023-10-08T07:54:18;22.10;45.30
18177;DHT22;9213;50.858;3.964;2023-10-08T07:56:46;22.10;45.60
18177;DHT22;9213;50.858;3.964;2023-10-08T07:59:14;22.20;45.60
18177;DHT22;9213;50.858;3.964;2023-10-08T08:01:42;22.40;45.40
18177;DHT22;9213;50.858;3.964;2023-10-08T08:04:10;22.60;44.90
18177;DHT22;9213;50.858;3.964;2023-10-08T08:06:47;22.80;44.40
18177;DHT22;9213;50.858;3.964;2023-10-08T08:09:17;23.10;43.90
18177;DHT22;9213;50.858;3.964;2023-10-08T08:11:45;23.30;43.30
18177;DHT22;9213;50.858;3.964;2023-10-08T08:14:14;23.40;42.80
18177;DHT22;9213;50.858;3.964;2023-10-08T08:16:43;23.60;42.50
18177;DHT22;9213;50.858;3.964;2023-10-08T08:19:14;23.70;42.40
18177;DHT22;9213;50.858;3.964;2023-10-08T08:21:42;23.90;42.30
18177;DHT22;9213;50.858;3.964;2023-10-08T08:24:12;24.00;41.60
18177;DHT22;9213;50.858;3.964;2023-10-08T08:26:41;24.20;41.20
18177;DHT22;9213;50.858;3.964;2023-10-08T08:29:26;24.30;40.90
18177;DHT22;9213;50.858;3.964;2023-10-08T08:31:54;24.50;40.80
18177;DHT22;9213;50.858;3.964;2023-10-08T08:34:22;24.60;40.70
18177;DHT22;9213;50.858;3.964;2023-10-08T08:36:49;24.70;40.20
18177;DHT22;9213;50.858;3.964;2023-10-08T08:39:16;24.90;40.30
18177;DHT22;9213;50.858;3.964;2023-10-08T08:41:59;25.10;39.80
18177;DHT22;9213;50.858;3.964;2023-10-08T08:44:31;25.40;39.40
18177;DHT22;9213;50.858;3.964;2023-10-08T08:47:01;25.60;38.90
18177;DHT22;9213;50.858;3.964;2023-10-08T08:49:32;25.80;38.30
18177;DHT22;9213;50.858;3.964;2023-10-08T08:52:00;26.00;38.30
18177;DHT22;9213;50.858;3.964;2023-10-08T08:54:27;26.10;38.00
18177;DHT22;9213;50.858;3.964;2023-10-08T08:56:57;26.20;37.70
18177;DHT22;9213;50.858;3.964;2023-10-08T08:59:27;26.50;37.50
18177;DHT22;9213;50.858;3.964;2023-10-08T09:01:57;26.50;37.20
18177;DHT22;9213;50.858;3.964;2023-10-08T09:04:28;26.60;37.30
18177;DHT22;9213;50.858;3.964;2023-10-08T09:06:56;26.70;37.30
18177;DHT22;9213;50.858;3.964;2023-10-08T09:09:31;26.70;37.40
18177;DHT22;9213;50.858;3.964;2023-10-08T09:11:59;26.90;37.20
18177;DHT22;9213;50.858;3.964;2023-10-08T09:14:28;26.90;36.90
18177;DHT22;9213;50.858;3.964;2023-10-08T09:16:57;26.90;36.90
18177;DHT22;9213;50.858;3.964;2023-10-08T09:19:26;27.00;37.10
18177;DHT22;9213;50.858;3.964;2023-10-08T09:22:00;27.10;36.90
18177;DHT22;9213;50.858;3.964;2023-10-08T09:24:29;27.20;36.50
18177;DHT22;9213;50.858;3.964;2023-10-08T09:26:56;27.30;36.20
18177;DHT22;9213;50.858;3.964;2023-10-08T09:29:25;27.50;36.00
18177;DHT22;9213;50.858;3.964;2023-10-08T09:31:53;27.60;36.10
18177;DHT22;9213;50.858;3.964;2023-10-08T09:34:21;27.70;36.30
18177;DHT22;9213;50.858;3.964;2023-10-08T09:36:49;27.70;35.60
18177;DHT22;9213;50.858;3.964;2023-10-08T09:39:17;27.60;36.00
18177;DHT22;9213;50.858;3.964;2023-10-08T09:41:50;27.50;35.90
18177;DHT22;9213;50.858;3.964;2023-10-08T09:44:19;27.40;36.40
18177;DHT22;9213;50.858;3.964;2023-10-08T09:46:52;27.40;36.60
18177;DHT22;9213;50.858;3.964;2023-10-08T09:49:23;27.50;36.50
18177;DHT22;9213;50.858;3.964;2023-10-08T09:51:53;27.60;36.30
18177;DHT22;9213;50.858;3.964;2023-10-08T09:54:24;27.70;35.80
18177;DHT22;9213;50.858;3.964;2023-10-08T09:56:53;27.80;35.80
18177;DHT22;9213;50.858;3.964;2023-10-08T09:59:23;27.90;36.10
18177;DHT22;9213;50.858;3.964;2023-10-08T10:01:52;27.90;35.50
18177;DHT22;9213;50.858;3.964;2023-10-08T10:04:23;27.90;35.90
18177;DHT22;9213;50.858;3.964;2023-10-08T10:06:51;28.00;36.20
18177;DHT22;9213;50.858;3.964;2023-10-08T10:09:21;28.10;36.80
18177;DHT22;9213;50.858;3.964;2023-10-08T10:11:50;28.10;36.20
18177;DHT22;9213;50.858;3.964;2023-10-08T10:14:17;28.10;36.30
18177;DHT22;9213;50.858;3.964;2023-10-08T10:16:48;28.20;36.20
18177;DHT22;9213;50.858;3.964;2023-10-08T10:19:20;28.40;36.30
18177;DHT22;9213;50.858;3.964;2023-10-08T10:21:48;28.70;35.90
18177;DHT22;9213;50.858;3.964;2023-10-08T10:24:32;28.70;35.40
18177;DHT22;9213;50.858;3.964;2023-10-08T10:27:11;29.00;35.70
18177;DHT22;9213;50.858;3.964;2023-10-08T10:29:40;29.10;35.50
18177;DHT22;9213;50.858;3.964;2023-10-08T10:32:10;29.30;35.50
18177;DHT22;9213;50.858;3.964;2023-10-08T10:34:40;29.50;35.00
18177;DHT22;9213;50.858;3.964;2023-10-08T10:37:08;29.60;34.80
18177;DHT22;9213;50.858;3.964;2023-10-08T10:39:53;29.70;34.20
18177;DHT22;9213;50.858;3.964;2023-10-08T10:42:21;29.80;34.20
18177;DHT22;9213;50.858;3.964;2023-10-08T10:44:49;29.70;34.20
18177;DHT22;9213;50.858;3.964;2023-10-08T10:47:17;29.80;34.60
18177;DHT22;9213;50.858;3.964;2023-10-08T10:49:53;29.90;34.20
18177;DHT22;9213;50.858;3.964;2023-10-08T10:52:38;30.00;34.40
18177;DHT22;9213;50.858;3.964;2023-10-08T10:55:11;30.10;34.30
18177;DHT22;9213;50.858;3.964;2023-10-08T10:57:50;30.10;34.30
18177;DHT22;9213;50.858;3.964;2023-10-08T11:00:20;30.20;34.50
18177;DHT22;9213;50.858;3.964;2023-10-08T11:03:13;30.30;34.20
18177;DHT22;9213;50.858;3.964;2023-10-08T11:05:45;30.30;34.10
18177;DHT22;9213;50.858;3.964;2023-10-08T11:08:17;30.40;33.70
18177;DHT22;9213;50.858;3.964;2023-10-08T11:10:47;30.40;33.80
18177;DHT22;9213;50.858;3.964;2023-10-08T11:13:20;30.40;33.80
18177;DHT22;9213;50.858;3.964;2023-10-08T11:15:50;30.50;33.80
18177;DHT22;9213;50.858;3.964;2023-10-08T11:18:18;30.50;33.80
18177;DHT22;9213;50.858;3.964;2023-10-08T11:20:49;30.60;33.70
18177;DHT22;9213;50.858;3.964;2023-10-08T11:23:33;30.70;33.80
18177;DHT22;9213;50.858;3.964;2023-10-08T11:26:02;30.90;33.50
18177;DHT22;9213;50.858;3.964;2023-10-08T11:28:30;30.80;33.30
18177;DHT22;9213;50.858;3.964;2023-10-08T11:31:00;30.90;33.10
18177;DHT22;9213;50.858;3.964;2023-10-08T11:33:34;30.90;33.10
18177;DHT22;9213;50.858;3.964;2023-10-08T11:36:04;31.00;33.80
18177;DHT22;9213;50.858;3.964;2023-10-08T11:38:39;31.10;33.60
18177;DHT22;9213;50.858;3.964;2023-10-08T11:41:11;31.10;34.00
18177;DHT22;9213;50.858;3.964;2023-10-08T11:43:47;31.20;33.40
18177;DHT22;9213;50.858;3.964;2023-10-08T11:46:20;31.20;32.80
18177;DHT22;9213;50.858;3.964;2023-10-08T11:48:47;31.30;33.20
18177;DHT22;9213;50.858;3.964;2023-10-08T11:51:17;31.30;32.80
18177;DHT22;9213;50.858;3.964;2023-10-08T11:53:49;31.30;33.10
18177;DHT22;9213;50.858;3.964;2023-10-08T11:56:17;31.50;32.60
18177;DHT22;9213;50.858;3.964;2023-10-08T11:58:48;31.50;32.60
18177;DHT22;9213;50.858;3.964;2023-10-08T12:01:14;31.50;32.70
18177;DHT22;9213;50.858;3.964;2023-10-08T12:03:43;31.60;32.00
18177;DHT22;9213;50.858;3.964;2023-10-08T12:06:11;31.70;32.20
18177;DHT22;9213;50.858;3.964;2023-10-08T12:08:42;31.70;32.20
18177;DHT22;9213;50.858;3.964;2023-10-08T12:11:14;31.70;32.20
18177;DHT22;9213;50.858;3.964;2023-10-08T12:13:42;31.80;31.50
18177;DHT22;9213;50.858;3.964;2023-10-08T12:16:13;31.80;31.70
18177;DHT22;9213;50.858;3.964;2023-10-08T12:18:47;31.80;31.80
18177;DHT22;9213;50.858;3.964;2023-10-08T12:21:19;31.80;32.00
18177;DHT22;9213;50.858;3.964;2023-10-08T12:23:48;31.90;31.70
18177;DHT22;9213;50.858;3.964;2023-10-08T12:26:17;31.90;31.50
18177;DHT22;9213;50.858;3.964;2023-10-08T12:28:45;31.90;31.40
18177;DHT22;9213;50.858;3.964;2023-10-08T12:31:15;32.00;31.90
18177;DHT22;9213;50.858;3.964;2023-10-08T12:33:42;32.10;31.80
18177;DHT22;9213;50.858;3.964;2023-10-08T12:36:11;32.10;31.40
18177;DHT22;9213;50.858;3.964;2023-10-08T12:38:41;32.20;31.60
18177;DHT22;9213;50.858;3.964;2023-10-08T12:41:11;32.20;31.60
18177;DHT22;9213;50.858;3.964;2023-10-08T12:43:43;32.30;31.70
18177;DHT22;9213;50.858;3.964;2023-10-08T12:46:12;32.30;30.60
18177;DHT22;9213;50.858;3.964;2023-10-08T12:48:44;32.30;30.70
18177;DHT22;9213;50.858;3.964;2023-10-08T12:51:14;32.40;30.60
18177;DHT22;9213;50.858;3.964;2023-10-08T12:53:41;32.40;30.20
18177;DHT22;9213;50.858;3.964;2023-10-08T12:56:17;32.50;30.00
18177;DHT22;9213;50.858;3.964;2023-10-08T12:58:47;32.50;30.20
18177;DHT22;9213;50.858;3.964;2023-10-08T13:01:15;32.50;30.00
18177;DHT22;9213;50.858;3.964;2023-10-08T13:03:44;32.50;30.30
18177;DHT22;9213;50.858;3.964;2023-10-08T13:06:15;32.60;30.00
18177;DHT22;9213;50.858;3.964;2023-10-08T13:08:48;32.60;29.50
18177;DHT22;9213;50.858;3.964;2023-10-08T13:11:17;32.60;29.70
18177;DHT22;9213;50.858;3.964;2023-10-08T13:13:49;32.60;29.90
18177;DHT22;9213;50.858;3.964;2023-10-08T13:16:16;32.70;30.80
18177;DHT22;9213;50.858;3.964;2023-10-08T13:18:43;32.70;30.30
18177;DHT22;9213;50.858;3.964;2023-10-08T13:21:10;32.70;30.10
18177;DHT22;9213;50.858;3.964;2023-10-08T13:23:37;32.80;29.50
18177;DHT22;9213;50.858;3.964;2023-10-08T13:26:05;32.80;29.20
18177;DHT22;9213;50.858;3.964;2023-10-08T13:28:34;32.80;29.50
18177;DHT22;9213;50.858;3.964;2023-10-08T13:31:02;32.80;29.70
18177;DHT22;9213;50.858;3.964;2023-10-08T13:33:35;32.80;29.70
18177;DHT22;9213;50.858;3.964;2023-10-08T13:36:05;32.80;29.50
18177;DHT22;9213;50.858;3.964;2023-10-08T13:38:34;32.80;29.50
18177;DHT22;9213;50.858;3.964;2023-10-08T13:41:02;32.90;29.60
18177;DHT22;9213;50.858;3.964;2023-10-08T13:43:30;32.90;29.30
18177;DHT22;9213;50.858;3.964;2023-10-08T13:46:08;32.90;29.40
18177;DHT22;9213;50.858;3.964;2023-10-08T13:48:39;32.90;29.80
18177;DHT22;9213;50.858;3.964;2023-10-08T13:51:07;32.90;29.70
18177;DHT22;9213;50.858;3.964;2023-10-08T13:53:39;32.90;30.00
18177;DHT22;9213;50.858;3.964;2023-10-08T13:56:06;32.80;29.70
18177;DHT22;9213;50.858;3.964;2023-10-08T13:58:37;32.80;29.50
18177;DHT22;9213;50.858;3.964;2023-10-08T14:01:08;32.70;29.70
18177;DHT22;9213;50.858;3.964;2023-10-08T14:03:45;32.70;30.00
18177;DHT22;9213;50.858;3.964;2023-10-08T14:06:12;32.50;30.30
18177;DHT22;9213;50.858;3.964;2023-10-08T14:08:39;32.50;30.20
18177;DHT22;9213;50.858;3.964;2023-10-08T14:11:09;32.40;30.10
18177;DHT22;9213;50.858;3.964;2023-10-08T14:13:38;32.40;30.30
18177;DHT22;9213;50.858;3.964;2023-10-08T14:16:09;32.40;30.30
18177;DHT22;9213;50.858;3.964;2023-10-08T14:18:37;32.30;30.20
18177;DHT22;9213;50.858;3.964;2023-10-08T14:21:06;32.20;30.90
18177;DHT22;9213;50.858;3.964;2023-10-08T14:23:35;32.20;31.10
18177;DHT22;9213;50.858;3.964;2023-10-08T14:26:05;32.10;30.80
18177;DHT22;9213;50.858;3.964;2023-10-08T14:28:33;32.10;31.10
18177;DHT22;9213;50.858;3.964;2023-10-08T14:31:18;32.00;31.30
18177;DHT22;9213;50.858;3.964;2023-10-08T14:33:48;32.00;31.30
18177;DHT22;9213;50.858;3.964;2023-10-08T14:36:31;31.80;31.00
18177;DHT22;9213;50.858;3.964;2023-10-08T14:39:17;31.80;31.00
18177;DHT22;9213;50.858;3.964;2023-10-08T14:42:10;31.70;31.10
18177;DHT22;9213;50.858;3.964;2023-10-08T14:44:56;31.70;31.50
18177;DHT22;9213;50.858;3.964;2023-10-08T14:47:24;31.50;31.90
18177;DHT22;9213;50.858;3.964;2023-10-08T14:49:51;31.40;31.80
18177;DHT22;9213;50.858;3.964;2023-10-08T14:52:18;31.30;32.00
18177;DHT22;9213;50.858;3.964;2023-10-08T14:54:45;31.20;32.60
18177;DHT22;9213;50.858;3.964;2023-10-08T14:57:13;31.10;32.50
18177;DHT22;9213;50.858;3.964;2023-10-08T14:59:40;31.10;32.80
18177;DHT22;9213;50.858;3.964;2023-10-08T15:02:07;31.00;32.90
18177;DHT22;9213;50.858;3.964;2023-10-08T15:04:37;31.00;33.30
18177;DHT22;9213;50.858;3.964;2023-10-08T15:07:05;30.90;32.40
18177;DHT22;9213;50.858;3.964;2023-10-08T15:09:34;30.80;32.70
18177;DHT22;9213;50.858;3.964;2023-10-08T15:12:01;30.70;32.90
18177;DHT22;9213;50.858;3.964;2023-10-08T15:14:28;30.70;33.30
18177;DHT22;9213;50.858;3.964;2023-10-08T15:16:57;30.60;33.50
18177;DHT22;9213;50.858;3.964;2023-10-08T15:19:24;30.50;33.40
18177;DHT22;9213;50.858;3.964;2023-10-08T15:21:52;30.40;33.40
18177;DHT22;9213;50.858;3.964;2023-10-08T15:24:20;30.40;33.60
18177;DHT22;9213;50.858;3.964;2023-10-08T15:26:48;30.30;33.70
18177;DHT22;9213;50.858;3.964;2023-10-08T15:29:15;30.30;34.00
18177;DHT22;9213;50.858;3.964;2023-10-08T15:31:42;30.20;33.40
18177;DHT22;9213;50.858;3.964;2023-10-08T15:34:10;30.10;33.50
18177;DHT22;9213;50.858;3.964;2023-10-08T15:36:38;30.10;33.80
18177;DHT22;9213;50.858;3.964;2023-10-08T15:39:07;30.00;33.90
18177;DHT22;9213;50.858;3.964;2023-10-08T15:41:36;30.00;34.40
18177;DHT22;9213;50.858;3.964;2023-10-08T15:44:04;29.90;34.30
18177;DHT22;9213;50.858;3.964;2023-10-08T15:46:31;29.80;34.30
18177;DHT22;9213;50.858;3.964;2023-10-08T15:49:00;29.80;34.50
18177;DHT22;9213;50.858;3.964;2023-10-08T15:51:29;29.80;34.60
18177;DHT22;9213;50.858;3.964;2023-10-08T15:53:57;29.80;34.70
18177;DHT22;9213;50.858;3.964;2023-10-08T15:56:26;29.70;34.90
18177;DHT22;9213;50.858;3.964;2023-10-08T15:58:53;29.60;34.90
18177;DHT22;9213;50.858;3.964;2023-10-08T16:01:20;29.60;35.00
18177;DHT22;9213;50.858;3.964;2023-10-08T16:03:47;29.40;35.30
18177;DHT22;9213;50.858;3.964;2023-10-08T16:06:16;29.40;35.30
18177;DHT22;9213;50.858;3.964;2023-10-08T16:08:43;29.40;35.40
18177;DHT22;9213;50.858;3.964;2023-10-08T16:11:10;29.30;35.80